Eendracht — PDVN — position and weather

sailwx.info

Track history (hours):
 
Tides and Currents Weather Stations Pressure Air Temp Water Temp Dewpoint Dewpoint Depression Visibility Wind Speed Wind Dir Waves Ship Positions

Eendracht (Netherlands)

Last reported at 2015-May-23 03:33 UTC. Time now 2015-May-23 04:21 UTC.
Position N 51°54' E 004°29'.

Length 59 m; beam 12 m; draft 5 m.

MMSI: 244543000.

Date/timePositionNaut miles runAvg speedWind from/ knotsBaromVisibWave heightAir tempDewpointWater temp
2015-May-23 03:33N 51°54' E 004°29'0 0.0
2015-May-23 02:33N 51°54' E 004°29'0 0.0
2015-May-23 01:33N 51°54' E 004°29'0 0.0
2015-May-23 00:33N 51°54' E 004°29'0 0.0
2015-May-22 23:33N 51°54' E 004°29'0 0.0
2015-May-22 22:33N 51°54' E 004°29'0 0.0
2015-May-22 21:33N 51°54' E 004°29'0 0.0
2015-May-22 20:33N 51°54' E 004°29'3 2.7
2015-May-22 19:33N 51°54' E 004°25'2 2.4
2015-May-22 18:34N 51°54' E 004°21'1 0.8
2015-May-22 17:33N 51°54' E 004°22'3 2.6
2015-May-22 16:33N 51°54' E 004°26'1 1.1
2015-May-22 15:34N 51°54' E 004°28'4 4.5
2015-May-22 14:34N 51°54' E 004°21'0 0.0
2015-May-22 13:32N 51°54' E 004°21'1 0.5
2015-May-22 12:33N 51°54' E 004°22'4 3.6
2015-May-22 11:33N 51°54' E 004°28'0 0.0
2015-May-22 10:33N 51°54' E 004°28'0 0.0
2015-May-22 09:33N 51°54' E 004°28'0 0.0
2015-May-22 08:33N 51°54' E 004°28'0 0.0
2015-May-22 07:33N 51°54' E 004°28'0 0.0
2015-May-22 06:33N 51°54' E 004°28'0 0.0
2015-May-22 05:33N 51°54' E 004°28'0 0.0
2015-May-22 04:33N 51°54' E 004°28'0 0.0
2015-May-22 03:33N 51°54' E 004°28'0 0.0
2015-May-22 02:33N 51°54' E 004°28'0 0.0
2015-May-22 01:33N 51°54' E 004°28'0 0.0
2015-May-22 00:33N 51°54' E 004°28'0 0.0
2015-May-21 23:33N 51°54' E 004°28'0 0.0
2015-May-21 22:33N 51°54' E 004°28'0 0.0
2015-May-21 21:33N 51°54' E 004°28'0 0.0
2015-May-21 20:33N 51°54' E 004°28'0 0.0
2015-May-21 19:33N 51°54' E 004°28'0 0.0
2015-May-21 18:33N 51°54' E 004°28'0 0.0
2015-May-21 17:33N 51°54' E 004°28'0 0.0
2015-May-21 16:32N 51°54' E 004°28'0 0.0
2015-May-21 15:29N 51°54' E 004°28'0 0.0
2015-May-21 14:32N 51°54' E 004°28'0 0.0
2015-May-21 13:32N 51°54' E 004°28'3 3.5
2015-May-21 12:33N 51°54' E 004°22'4 4.3
2015-May-21 11:33N 51°55' E 004°15'5 4.7
2015-May-21 10:33N 51°58' E 004°09'4 4.4
2015-May-21 09:33N 51°59' E 004°03'1 1.5
2015-May-21 08:33N 52°01' E 004°03'1 0.5
2015-May-21 07:33N 52°01' E 004°04'0 0.1
2015-May-21 06:33N 52°01' E 004°04'1 0.6
2015-May-21 05:33N 52°00' E 004°05'0 0.4
2015-May-21 04:32N 51°60' E 004°04'0 0.0
2015-May-21 03:32N 51°60' E 004°04'0 0.0
2015-May-21 02:32N 51°60' E 004°04'0 0.0
2015-May-21 01:32N 51°60' E 004°04'1 0.8
2015-May-21 00:33N 52°00' E 004°03'3 2.5
2015-May-20 23:33N 52°03' E 004°05'5 5.4
2015-May-20 22:33N 52°07' E 004°10'6 5.7
2015-May-20 21:33N 52°12' E 004°16'5 4.9
2015-May-20 20:33N 52°16' E 004°20'4 4.1
2015-May-20 19:33N 52°20' E 004°22'3 3.0
2015-May-20 18:33N 52°22' E 004°25'2 2.2
2015-May-20 17:33N 52°24' E 004°26'2 1.5
2015-May-20 16:33N 52°26' E 004°27'2 1.6
2015-May-20 15:33N 52°27' E 004°29'2 2.5
2015-May-20 14:33N 52°29' E 004°30'4 4.3
2015-May-20 13:33N 52°34' E 004°31'5 5.3
2015-May-20 12:34N 52°39' E 004°33'6 5.6
2015-May-20 11:33N 52°44' E 004°35'6 5.9
2015-May-20 10:33N 52°50' E 004°37'5 5.2
2015-May-20 09:33N 52°55' E 004°40'5 4.7
2015-May-20 08:33N 52°58' E 004°45'2 1.5
2015-May-20 07:32N 52°57' E 004°47'0 0.0
2015-May-20 06:29N 52°57' E 004°47'0 0.0
2015-May-20 05:26N 52°57' E 004°47'0 0.0
2015-May-20 04:29N 52°57' E 004°47'0 0.0
2015-May-20 03:32N 52°57' E 004°47'0 0.0
2015-May-20 02:32N 52°57' E 004°47'0 0.0
2015-May-20 01:29N 52°57' E 004°47'0 0.0
2015-May-20 00:32N 52°57' E 004°47'0 0.0
2015-May-19 23:32N 52°57' E 004°47'0 0.0
2015-May-19 22:32N 52°57' E 004°47'0 0.0
2015-May-19 21:32N 52°57' E 004°47'0 0.0
2015-May-19 20:29N 52°57' E 004°47'0 0.0
2015-May-19 19:32N 52°57' E 004°47'0 0.0
2015-May-19 18:32N 52°57' E 004°47'0 0.1
2015-May-19 17:33N 52°57' E 004°47'2 2.1
2015-May-19 16:33N 52°59' E 004°48'1 0.5
2015-May-19 15:34N 52°59' E 004°48'3 3.0
2015-May-19 14:33N 53°01' E 004°50'1 0.5
2015-May-19 13:34N 53°01' E 004°50'2 1.6
2015-May-19 12:34N 52°60' E 004°48'1 0.7
2015-May-19 11:34N 52°59' E 004°48'0 0.0
2015-May-19 10:34N 52°59' E 004°48'1 1.5
2015-May-19 09:33N 53°00' E 004°49'1 0.5
2015-May-19 08:33N 52°60' E 004°48'1 0.9
2015-May-19 07:33N 52°59' E 004°47'0 0.4
2015-May-19 06:33N 52°59' E 004°48'2 2.2
2015-May-19 05:34N 53°01' E 004°50'1 0.8
2015-May-19 04:33N 53°00' E 004°50'2 1.9
2015-May-19 03:33N 52°59' E 004°48'1 0.7
2015-May-19 02:33N 52°59' E 004°48'1 1.0
2015-May-19 01:33N 52°59' E 004°47'5 4.7
2015-May-19 00:33N 52°56' E 004°40'5 4.6
2015-May-18 23:33N 52°52' E 004°36'5 5.3
2015-May-18 22:33N 52°50' E 004°29'5 5.4
2015-May-18 21:33N 52°47' E 004°21'6 5.6
2015-May-18 20:23N 52°44' E 004°11'34 4.4
2015-May-18 12:29N 52°15' E 003°40'7 7.6
2015-May-18 11:33N 52°08' E 003°44'6 6.0
2015-May-18 10:34N 52°04' E 003°50'6 6.3
2015-May-18 09:34N 52°01' E 003°59'6 5.8
2015-May-18 08:33N 51°58' E 004°07'8 8.1
2015-May-18 07:34N 51°54' E 004°18'6 5.4
2015-May-18 06:31N 51°54' E 004°27'0 0.0
2015-May-18 05:31N 51°54' E 004°27'0 0.0
2015-May-18 04:32N 51°54' E 004°27'0 0.0
2015-May-18 03:31N 51°54' E 004°27'0 0.0
2015-May-18 02:31N 51°54' E 004°27'0 0.0
2015-May-18 01:31N 51°54' E 004°27'0 0.0
2015-May-18 00:31N 51°54' E 004°27'0 0.0
2015-May-17 23:31N 51°54' E 004°27'0 0.0
2015-May-17 22:31N 51°54' E 004°27'0 0.0
2015-May-17 21:31N 51°54' E 004°27'0 0.0
2015-May-17 20:31N 51°54' E 004°27'0 0.0
2015-May-17 19:31N 51°54' E 004°27'0 0.0
2015-May-17 18:31N 51°54' E 004°27'0 0.0
2015-May-17 17:31N 51°54' E 004°27'0 0.0
2015-May-17 16:31N 51°54' E 004°27'0 0.0
2015-May-17 15:31N 51°54' E 004°27'0 0.0
2015-May-17 14:30N 51°54' E 004°27'1 1.1
2015-May-17 13:32N 51°54' E 004°29'4 4.0
2015-May-17 12:33N 51°54' E 004°23'8 8.4
2015-May-17 11:33N 51°57' E 004°10'6 5.8
2015-May-17 10:33N 51°60' E 004°02'5 4.8
2015-May-17 09:33N 51°60' E 003°54'3 2.6
2015-May-17 08:33N 51°57' E 003°53'5 4.6
2015-May-17 07:32N 51°55' E 003°46'4 3.9
2015-May-17 06:33N 51°53' E 003°41'3 3.3
2015-May-17 05:33N 51°52' E 003°35'3 2.9
2015-May-17 04:33N 51°52' E 003°31'4 3.5
2015-May-17 03:33N 51°51' E 003°25'4 3.7
2015-May-17 02:33N 51°50' E 003°19'5 4.7
2015-May-17 01:34N 51°47' E 003°13'6 5.7
2015-May-17 00:27N 51°44' E 003°05'5 5.9
2015-May-16 23:33N 51°41' E 002°58'4 3.8
2015-May-16 22:26N 51°38' E 002°52'4 4.9
2015-May-16 21:32N 51°36' E 002°46'5 4.7
2015-May-16 20:33N 51°34' E 002°39'3 3.1
2015-May-16 19:31N 51°33' E 002°35'3 3.2
2015-May-16 18:33N 51°32' E 002°30'3 2.9
2015-May-16 17:33N 51°30' E 002°26'3 3.1
2015-May-16 16:33N 51°29' E 002°22'4 3.5
2015-May-16 15:33N 51°27' E 002°16'4 4.1
2015-May-16 14:33N 51°27' E 002°10'5 4.7
2015-May-16 13:34N 51°24' E 002°04'5 4.7
2015-May-16 12:33N 51°21' E 001°58'6 6.5
2015-May-16 11:33N 51°15' E 001°52'7 7.3
2015-May-16 10:33N 51°10' E 001°45'6 5.6
2015-May-16 09:33N 51°05' E 001°49'6 5.9
2015-May-16 08:33N 51°01' E 001°42'6 6.1
2015-May-16 07:33N 51°04' E 001°33'6 6.0
2015-May-16 06:34N 51°06' E 001°24'3 2.5
2015-May-16 05:27N 51°07' E 001°20'0 0.0
2015-May-16 04:15N 51°07' E 001°20'0 0.0
2015-May-16 03:33N 51°07' E 001°20'0 0.0
2015-May-16 02:32N 51°07' E 001°20'0 0.0
2015-May-16 01:08N 51°07' E 001°20'0 0.0
2015-May-16 00:32N 51°07' E 001°20'0 0.0
2015-May-15 23:23N 51°07' E 001°20'0 0.0
2015-May-15 22:29N 51°07' E 001°20'0 0.0
2015-May-15 19:20N 51°07' E 001°19'0 0.0
2015-May-15 18:23N 51°07' E 001°19'0 0.0
2015-May-15 14:32N 51°07' E 001°19'0 0.0
2015-May-15 12:26N 51°07' E 001°19'0 0.4
2015-May-15 11:30N 51°07' E 001°20'6 6.6
2015-May-15 10:33N 51°07' E 001°30'4 4.1
2015-May-15 09:34N 51°09' E 001°36'6 5.6
2015-May-15 08:34N 51°14' E 001°40'6 5.9
2015-May-15 07:34N 51°20' E 001°43'7 7.0
2015-May-15 06:33N 51°26' E 001°47'3 2.7
2015-May-15 05:34N 51°27' E 001°51'7 7.1
2015-May-15 04:33N 51°24' E 002°01'1818.0
2015-May-15 03:33N 51°23' E 002°30'2 2.0
2015-May-15 02:33N 51°23' E 002°26'8 7.8
2015-May-15 01:33N 51°24' E 002°39'4 4.0
2015-May-15 00:33N 51°27' E 002°42'6 5.4
2015-May-14 23:31N 51°33' E 002°42'31 5.2
2015-May-14 17:32N 52°01' E 003°04'8 7.7
2015-May-14 16:31N 52°02' E 003°17'7 7.1
2015-May-14 15:31N 52°03' E 003°28'6 6.5
2015-May-14 14:33N 52°04' E 003°38'5 5.4
2015-May-14 13:33N 52°05' E 003°47'5 4.8
2015-May-14 12:34N 52°04' E 003°55'5 4.6
2015-May-14 11:34N 52°01' E 004°01'6 6.3
2015-May-14 10:34N 51°58' E 004°09'5 5.1
2015-May-14 09:34N 51°55' E 004°15'6 6.5
2015-May-14 08:33N 51°54' E 004°26'2 1.9
2015-May-14 07:32N 51°54' E 004°29'0 0.0
2015-May-14 06:32N 51°54' E 004°29'0 0.0
2015-May-14 05:32N 51°54' E 004°29'0 0.0
2015-May-14 04:32N 51°54' E 004°29'0 0.0
2015-May-14 03:32N 51°54' E 004°29'0 0.0
2015-May-14 02:32N 51°54' E 004°29'0 0.0
2015-May-14 01:32N 51°54' E 004°29'0 0.0
2015-May-14 00:32N 51°54' E 004°29'0 0.0
2015-May-13 23:32N 51°54' E 004°29'0 0.0
2015-May-13 22:32N 51°54' E 004°29'0 0.0
2015-May-13 21:32N 51°54' E 004°29'0 0.0
2015-May-13 20:32N 51°54' E 004°29'0 0.0
2015-May-13 19:32N 51°54' E 004°29'0 0.0
2015-May-13 18:32N 51°54' E 004°29'0 0.0
2015-May-13 17:32N 51°54' E 004°29'0 0.0
2015-May-13 16:32N 51°54' E 004°29'0 0.0
2015-May-13 15:33N 51°54' E 004°29'1 1.0
2015-May-13 14:33N 51°54' E 004°27'2 1.6
2015-May-13 13:33N 51°54' E 004°25'5 4.8
2015-May-13 12:33N 51°54' E 004°17'5 4.8
2015-May-13 11:33N 51°57' E 004°11'5 5.4
2015-May-13 10:33N 51°60' E 004°03'4 4.4
2015-May-13 09:33N 52°04' E 004°03'4 3.8
2015-May-13 08:33N 52°08' E 004°03'4 4.1
2015-May-13 07:33N 52°12' E 004°03'5 4.7
2015-May-13 06:33N 52°12' E 003°55'5 5.0
2015-May-13 05:33N 52°12' E 003°47'5 5.2
2015-May-13 04:33N 52°14' E 003°39'5 5.3
2015-May-13 03:33N 52°16' E 003°31'  
Track history (hours):
 
Tides and Currents Weather Stations Pressure Air Temp Water Temp Dewpoint Dewpoint Depression Visibility Wind Speed Wind Dir Waves Ship Positions

Eendracht (Netherlands)

Last reported at 2015-May-23 03:33 UTC. Time now 2015-May-23 04:21 UTC.
Position N 51°54' E 004°29'.

Length 59 m; beam 12 m; draft 5 m.

MMSI: 244543000.

Date/timePositionNaut miles runAvg speedWind from/ knotsBaromVisibWave heightAir tempDewpointWater temp
2015-May-23 03:33N 51°54' E 004°29'0 0.0
2015-May-23 02:33N 51°54' E 004°29'0 0.0
2015-May-23 01:33N 51°54' E 004°29'0 0.0
2015-May-23 00:33N 51°54' E 004°29'0 0.0
2015-May-22 23:33N 51°54' E 004°29'0 0.0
2015-May-22 22:33N 51°54' E 004°29'0 0.0
2015-May-22 21:33N 51°54' E 004°29'0 0.0
2015-May-22 20:33N 51°54' E 004°29'3 2.7
2015-May-22 19:33N 51°54' E 004°25'2 2.4
2015-May-22 18:34N 51°54' E 004°21'1 0.8
2015-May-22 17:33N 51°54' E 004°22'3 2.6
2015-May-22 16:33N 51°54' E 004°26'1 1.1
2015-May-22 15:34N 51°54' E 004°28'4 4.5
2015-May-22 14:34N 51°54' E 004°21'0 0.0
2015-May-22 13:32N 51°54' E 004°21'1 0.5
2015-May-22 12:33N 51°54' E 004°22'4 3.6
2015-May-22 11:33N 51°54' E 004°28'0 0.0
2015-May-22 10:33N 51°54' E 004°28'0 0.0
2015-May-22 09:33N 51°54' E 004°28'0 0.0
2015-May-22 08:33N 51°54' E 004°28'0 0.0
2015-May-22 07:33N 51°54' E 004°28'0 0.0
2015-May-22 06:33N 51°54' E 004°28'0 0.0
2015-May-22 05:33N 51°54' E 004°28'0 0.0
2015-May-22 04:33N 51°54' E 004°28'0 0.0
2015-May-22 03:33N 51°54' E 004°28'0 0.0
2015-May-22 02:33N 51°54' E 004°28'0 0.0
2015-May-22 01:33N 51°54' E 004°28'0 0.0
2015-May-22 00:33N 51°54' E 004°28'0 0.0
2015-May-21 23:33N 51°54' E 004°28'0 0.0
2015-May-21 22:33N 51°54' E 004°28'0 0.0
2015-May-21 21:33N 51°54' E 004°28'0 0.0
2015-May-21 20:33N 51°54' E 004°28'0 0.0
2015-May-21 19:33N 51°54' E 004°28'0 0.0
2015-May-21 18:33N 51°54' E 004°28'0 0.0
2015-May-21 17:33N 51°54' E 004°28'0 0.0
2015-May-21 16:32N 51°54' E 004°28'0 0.0
2015-May-21 15:29N 51°54' E 004°28'0 0.0
2015-May-21 14:32N 51°54' E 004°28'0 0.0
2015-May-21 13:32N 51°54' E 004°28'3 3.5
2015-May-21 12:33N 51°54' E 004°22'4 4.3
2015-May-21 11:33N 51°55' E 004°15'5 4.7
2015-May-21 10:33N 51°58' E 004°09'4 4.4
2015-May-21 09:33N 51°59' E 004°03'1 1.5
2015-May-21 08:33N 52°01' E 004°03'1 0.5
2015-May-21 07:33N 52°01' E 004°04'0 0.1
2015-May-21 06:33N 52°01' E 004°04'1 0.6
2015-May-21 05:33N 52°00' E 004°05'0 0.4
2015-May-21 04:32N 51°60' E 004°04'0 0.0
2015-May-21 03:32N 51°60' E 004°04'0 0.0
2015-May-21 02:32N 51°60' E 004°04'0 0.0
2015-May-21 01:32N 51°60' E 004°04'1 0.8
2015-May-21 00:33N 52°00' E 004°03'3 2.5
2015-May-20 23:33N 52°03' E 004°05'5 5.4
2015-May-20 22:33N 52°07' E 004°10'6 5.7
2015-May-20 21:33N 52°12' E 004°16'5 4.9
2015-May-20 20:33N 52°16' E 004°20'4 4.1
2015-May-20 19:33N 52°20' E 004°22'3 3.0
2015-May-20 18:33N 52°22' E 004°25'2 2.2
2015-May-20 17:33N 52°24' E 004°26'2 1.5
2015-May-20 16:33N 52°26' E 004°27'2 1.6
2015-May-20 15:33N 52°27' E 004°29'2 2.5
2015-May-20 14:33N 52°29' E 004°30'4 4.3
2015-May-20 13:33N 52°34' E 004°31'5 5.3
2015-May-20 12:34N 52°39' E 004°33'6 5.6
2015-May-20 11:33N 52°44' E 004°35'6 5.9
2015-May-20 10:33N 52°50' E 004°37'5 5.2
2015-May-20 09:33N 52°55' E 004°40'5 4.7
2015-May-20 08:33N 52°58' E 004°45'2 1.5
2015-May-20 07:32N 52°57' E 004°47'0 0.0
2015-May-20 06:29N 52°57' E 004°47'0 0.0
2015-May-20 05:26N 52°57' E 004°47'0 0.0
2015-May-20 04:29N 52°57' E 004°47'0 0.0
2015-May-20 03:32N 52°57' E 004°47'0 0.0
2015-May-20 02:32N 52°57' E 004°47'0 0.0
2015-May-20 01:29N 52°57' E 004°47'0 0.0
2015-May-20 00:32N 52°57' E 004°47'0 0.0
2015-May-19 23:32N 52°57' E 004°47'0 0.0
2015-May-19 22:32N 52°57' E 004°47'0 0.0
2015-May-19 21:32N 52°57' E 004°47'0 0.0
2015-May-19 20:29N 52°57' E 004°47'0 0.0
2015-May-19 19:32N 52°57' E 004°47'0 0.0
2015-May-19 18:32N 52°57' E 004°47'0 0.1
2015-May-19 17:33N 52°57' E 004°47'2 2.1
2015-May-19 16:33N 52°59' E 004°48'1 0.5
2015-May-19 15:34N 52°59' E 004°48'3 3.0
2015-May-19 14:33N 53°01' E 004°50'1 0.5
2015-May-19 13:34N 53°01' E 004°50'2 1.6
2015-May-19 12:34N 52°60' E 004°48'1 0.7
2015-May-19 11:34N 52°59' E 004°48'0 0.0
2015-May-19 10:34N 52°59' E 004°48'1 1.5
2015-May-19 09:33N 53°00' E 004°49'1 0.5
2015-May-19 08:33N 52°60' E 004°48'1 0.9
2015-May-19 07:33N 52°59' E 004°47'0 0.4
2015-May-19 06:33N 52°59' E 004°48'2 2.2
2015-May-19 05:34N 53°01' E 004°50'1 0.8
2015-May-19 04:33N 53°00' E 004°50'2 1.9
2015-May-19 03:33N 52°59' E 004°48'1 0.7
2015-May-19 02:33N 52°59' E 004°48'1 1.0
2015-May-19 01:33N 52°59' E 004°47'5 4.7
2015-May-19 00:33N 52°56' E 004°40'5 4.6
2015-May-18 23:33N 52°52' E 004°36'5 5.3
2015-May-18 22:33N 52°50' E 004°29'5 5.4
2015-May-18 21:33N 52°47' E 004°21'6 5.6
2015-May-18 20:23N 52°44' E 004°11'34 4.4
2015-May-18 12:29N 52°15' E 003°40'7 7.6
2015-May-18 11:33N 52°08' E 003°44'6 6.0
2015-May-18 10:34N 52°04' E 003°50'6 6.3
2015-May-18 09:34N 52°01' E 003°59'6 5.8
2015-May-18 08:33N 51°58' E 004°07'8 8.1
2015-May-18 07:34N 51°54' E 004°18'6 5.4
2015-May-18 06:31N 51°54' E 004°27'0 0.0
2015-May-18 05:31N 51°54' E 004°27'0 0.0
2015-May-18 04:32N 51°54' E 004°27'0 0.0
2015-May-18 03:31N 51°54' E 004°27'0 0.0
2015-May-18 02:31N 51°54' E 004°27'0 0.0
2015-May-18 01:31N 51°54' E 004°27'0 0.0
2015-May-18 00:31N 51°54' E 004°27'0 0.0
2015-May-17 23:31N 51°54' E 004°27'0 0.0
2015-May-17 22:31N 51°54' E 004°27'0 0.0
2015-May-17 21:31N 51°54' E 004°27'0 0.0
2015-May-17 20:31N 51°54' E 004°27'0 0.0
2015-May-17 19:31N 51°54' E 004°27'0 0.0
2015-May-17 18:31N 51°54' E 004°27'0 0.0
2015-May-17 17:31N 51°54' E 004°27'0 0.0
2015-May-17 16:31N 51°54' E 004°27'0 0.0
2015-May-17 15:31N 51°54' E 004°27'0 0.0
2015-May-17 14:30N 51°54' E 004°27'1 1.1
2015-May-17 13:32N 51°54' E 004°29'4 4.0
2015-May-17 12:33N 51°54' E 004°23'8 8.4
2015-May-17 11:33N 51°57' E 004°10'6 5.8
2015-May-17 10:33N 51°60' E 004°02'5 4.8
2015-May-17 09:33N 51°60' E 003°54'3 2.6
2015-May-17 08:33N 51°57' E 003°53'5 4.6
2015-May-17 07:32N 51°55' E 003°46'4 3.9
2015-May-17 06:33N 51°53' E 003°41'3 3.3
2015-May-17 05:33N 51°52' E 003°35'3 2.9
2015-May-17 04:33N 51°52' E 003°31'4 3.5
2015-May-17 03:33N 51°51' E 003°25'4 3.7
2015-May-17 02:33N 51°50' E 003°19'5 4.7
2015-May-17 01:34N 51°47' E 003°13'6 5.7
2015-May-17 00:27N 51°44' E 003°05'5 5.9
2015-May-16 23:33N 51°41' E 002°58'4 3.8
2015-May-16 22:26N 51°38' E 002°52'4 4.9
2015-May-16 21:32N 51°36' E 002°46'5 4.7
2015-May-16 20:33N 51°34' E 002°39'3 3.1
2015-May-16 19:31N 51°33' E 002°35'3 3.2
2015-May-16 18:33N 51°32' E 002°30'3 2.9
2015-May-16 17:33N 51°30' E 002°26'3 3.1
2015-May-16 16:33N 51°29' E 002°22'4 3.5
2015-May-16 15:33N 51°27' E 002°16'4 4.1
2015-May-16 14:33N 51°27' E 002°10'5 4.7
2015-May-16 13:34N 51°24' E 002°04'5 4.7
2015-May-16 12:33N 51°21' E 001°58'6 6.5
2015-May-16 11:33N 51°15' E 001°52'7 7.3
2015-May-16 10:33N 51°10' E 001°45'6 5.6
2015-May-16 09:33N 51°05' E 001°49'6 5.9
2015-May-16 08:33N 51°01' E 001°42'6 6.1
2015-May-16 07:33N 51°04' E 001°33'6 6.0
2015-May-16 06:34N 51°06' E 001°24'3 2.5
2015-May-16 05:27N 51°07' E 001°20'0 0.0
2015-May-16 04:15N 51°07' E 001°20'0 0.0
2015-May-16 03:33N 51°07' E 001°20'0 0.0
2015-May-16 02:32N 51°07' E 001°20'0 0.0
2015-May-16 01:08N 51°07' E 001°20'0 0.0
2015-May-16 00:32N 51°07' E 001°20'0 0.0
2015-May-15 23:23N 51°07' E 001°20'0 0.0
2015-May-15 22:29N 51°07' E 001°20'0 0.0
2015-May-15 19:20N 51°07' E 001°19'0 0.0
2015-May-15 18:23N 51°07' E 001°19'0 0.0
2015-May-15 14:32N 51°07' E 001°19'0 0.0
2015-May-15 12:26N 51°07' E 001°19'0 0.4
2015-May-15 11:30N 51°07' E 001°20'6 6.6
2015-May-15 10:33N 51°07' E 001°30'4 4.1
2015-May-15 09:34N 51°09' E 001°36'6 5.6
2015-May-15 08:34N 51°14' E 001°40'6 5.9
2015-May-15 07:34N 51°20' E 001°43'7 7.0
2015-May-15 06:33N 51°26' E 001°47'3 2.7
2015-May-15 05:34N 51°27' E 001°51'7 7.1
2015-May-15 04:33N 51°24' E 002°01'1818.0
2015-May-15 03:33N 51°23' E 002°30'2 2.0
2015-May-15 02:33N 51°23' E 002°26'8 7.8
2015-May-15 01:33N 51°24' E 002°39'4 4.0
2015-May-15 00:33N 51°27' E 002°42'6 5.4
2015-May-14 23:31N 51°33' E 002°42'31 5.2
2015-May-14 17:32N 52°01' E 003°04'8 7.7
2015-May-14 16:31N 52°02' E 003°17'7 7.1
2015-May-14 15:31N 52°03' E 003°28'6 6.5
2015-May-14 14:33N 52°04' E 003°38'5 5.4
2015-May-14 13:33N 52°05' E 003°47'5 4.8
2015-May-14 12:34N 52°04' E 003°55'5 4.6
2015-May-14 11:34N 52°01' E 004°01'6 6.3
2015-May-14 10:34N 51°58' E 004°09'5 5.1
2015-May-14 09:34N 51°55' E 004°15'6 6.5
2015-May-14 08:33N 51°54' E 004°26'2 1.9
2015-May-14 07:32N 51°54' E 004°29'0 0.0
2015-May-14 06:32N 51°54' E 004°29'0 0.0
2015-May-14 05:32N 51°54' E 004°29'0 0.0
2015-May-14 04:32N 51°54' E 004°29'0 0.0
2015-May-14 03:32N 51°54' E 004°29'0 0.0
2015-May-14 02:32N 51°54' E 004°29'0 0.0
2015-May-14 01:32N 51°54' E 004°29'0 0.0
2015-May-14 00:32N 51°54' E 004°29'0 0.0
2015-May-13 23:32N 51°54' E 004°29'0 0.0
2015-May-13 22:32N 51°54' E 004°29'0 0.0
2015-May-13 21:32N 51°54' E 004°29'0 0.0
2015-May-13 20:32N 51°54' E 004°29'0 0.0
2015-May-13 19:32N 51°54' E 004°29'0 0.0
2015-May-13 18:32N 51°54' E 004°29'0 0.0
2015-May-13 17:32N 51°54' E 004°29'0 0.0
2015-May-13 16:32N 51°54' E 004°29'0 0.0
2015-May-13 15:33N 51°54' E 004°29'1 1.0
2015-May-13 14:33N 51°54' E 004°27'2 1.6
2015-May-13 13:33N 51°54' E 004°25'5 4.8
2015-May-13 12:33N 51°54' E 004°17'5 4.8
2015-May-13 11:33N 51°57' E 004°11'5 5.4
2015-May-13 10:33N 51°60' E 004°03'4 4.4
2015-May-13 09:33N 52°04' E 004°03'4 3.8
2015-May-13 08:33N 52°08' E 004°03'4 4.1
2015-May-13 07:33N 52°12' E 004°03'5 4.7
2015-May-13 06:33N 52°12' E 003°55'5 5.0
2015-May-13 05:33N 52°12' E 003°47'5 5.2
2015-May-13 04:33N 52°14' E 003°39'5 5.3
2015-May-13 03:33N 52°16' E 003°31'  

Dump ship's entire track history